createdAt,value
2023-01-08T00:03:25.273Z,15.50
2023-01-08T00:08:34.659Z,16.90
2023-01-08T00:13:43.290Z,16.20
2023-01-08T00:18:51.820Z,17.30
2023-01-08T00:23:59.984Z,16.60
2023-01-08T00:29:08.528Z,17.30
2023-01-08T00:34:16.764Z,17.80
2023-01-08T00:39:25.292Z,16.80
2023-01-08T00:44:33.726Z,16.50
2023-01-08T00:49:42.252Z,16.60
2023-01-08T00:54:50.324Z,16.40
2023-01-08T00:59:58.809Z,16.80
2023-01-08T01:05:08.117Z,17.80
2023-01-08T01:10:17.750Z,16.10
2023-01-08T01:15:26.422Z,18.10
2023-01-08T01:20:35.477Z,18.30
2023-01-08T01:25:45.807Z,18.20
2023-01-08T01:30:59.468Z,18.40
2023-01-08T01:36:09.272Z,18.20
2023-01-08T01:41:26.058Z,16.60
2023-01-08T01:46:42.070Z,17.40
2023-01-08T01:51:53.990Z,17.80
2023-01-08T01:57:03.443Z,17.50
2023-01-08T02:02:12.561Z,16.60
2023-01-08T02:07:30.268Z,16.70
2023-01-08T02:12:43.390Z,16.00
2023-01-08T02:17:57.208Z,18.00
2023-01-08T02:23:21.306Z,16.70
2023-01-08T02:28:30.967Z,17.50
2023-01-08T02:33:40.105Z,18.10
2023-01-08T02:38:58.730Z,18.70
2023-01-08T02:44:10.228Z,18.00
2023-01-08T02:49:23.716Z,18.90
2023-01-08T02:54:37.289Z,18.50
2023-01-08T02:59:49.611Z,20.40
2023-01-08T03:10:08.369Z,18.30
2023-01-08T03:15:21.361Z,20.00
2023-01-08T03:20:32.138Z,19.00
2023-01-08T03:25:43.712Z,19.90
2023-01-08T03:30:54.186Z,20.50
2023-01-08T03:36:07.174Z,19.20
2023-01-08T03:41:22.252Z,18.90
2023-01-08T03:46:35.521Z,20.20
2023-01-08T03:51:48.050Z,20.30
2023-01-08T03:56:56.813Z,21.70
2023-01-08T04:02:05.417Z,21.20
2023-01-08T04:07:14.419Z,22.40
2023-01-08T04:12:25.020Z,21.10
2023-01-08T04:17:33.250Z,21.20
2023-01-08T04:22:41.751Z,23.40
2023-01-08T04:27:50.399Z,20.90
2023-01-08T04:32:59.035Z,20.90
2023-01-08T04:38:07.497Z,21.60
2023-01-08T04:43:16.028Z,23.60
2023-01-08T04:48:24.407Z,21.70
2023-01-08T04:53:35.051Z,22.00
2023-01-08T04:58:43.414Z,21.30
2023-01-08T05:03:54.862Z,21.30
2023-01-08T05:09:03.121Z,22.70
2023-01-08T05:14:11.496Z,23.70
2023-01-08T05:19:20.199Z,23.00
2023-01-08T05:24:28.294Z,22.80
2023-01-08T05:29:36.631Z,20.30
2023-01-08T05:34:44.922Z,22.30
2023-01-08T05:39:53.406Z,23.30
2023-01-08T05:45:01.836Z,23.40
2023-01-08T05:50:11.363Z,22.60
2023-01-08T05:55:19.932Z,22.90
2023-01-08T06:00:28.321Z,22.60
2023-01-08T06:05:37.394Z,23.00
2023-01-08T06:10:45.663Z,22.50
2023-01-08T06:15:54.661Z,23.30
2023-01-08T06:21:04.835Z,23.50
2023-01-08T06:26:13.224Z,21.90
2023-01-08T06:31:21.743Z,22.30
2023-01-08T06:36:29.429Z,22.10
2023-01-08T06:41:38.675Z,22.40
2023-01-08T06:46:47.721Z,19.20
2023-01-08T06:51:57.592Z,19.60
2023-01-08T06:57:06.109Z,22.30
2023-01-08T07:02:17.770Z,20.20
2023-01-08T07:07:26.544Z,19.70
2023-01-08T07:12:35.579Z,19.20
2023-01-08T07:17:44.019Z,18.00
2023-01-08T07:22:52.656Z,18.60
2023-01-08T07:28:01.388Z,16.70
2023-01-08T07:33:09.656Z,18.20
2023-01-08T07:38:18.102Z,17.30
2023-01-08T07:43:27.122Z,16.10
2023-01-08T07:48:35.541Z,16.60
2023-01-08T07:53:44.083Z,16.00
2023-01-08T07:58:52.422Z,15.90
2023-01-08T08:04:01.255Z,14.80
2023-01-08T08:09:09.608Z,15.70
2023-01-08T08:14:18.026Z,15.90
2023-01-08T08:19:26.702Z,15.30
2023-01-08T08:24:35.002Z,15.80
2023-01-08T08:29:43.483Z,15.20
2023-01-08T08:34:52.383Z,15.10
2023-01-08T08:40:00.890Z,16.10
2023-01-08T08:45:11.011Z,15.50
2023-01-08T08:50:19.437Z,15.40
2023-01-08T08:55:28.005Z,14.90
2023-01-08T09:00:36.796Z,16.50
2023-01-08T09:05:45.802Z,15.50
2023-01-08T09:10:54.537Z,16.30
2023-01-08T09:16:03.964Z,15.20
2023-01-08T09:21:12.605Z,14.90
2023-01-08T09:26:21.167Z,15.80
2023-01-08T09:31:31.477Z,15.00
2023-01-08T09:36:40.394Z,16.50
2023-01-08T09:41:50.957Z,15.50
2023-01-08T09:47:00.680Z,15.80
2023-01-08T09:52:11.844Z,16.40
2023-01-08T09:57:22.771Z,18.10
2023-01-08T10:02:32.762Z,17.10
2023-01-08T10:07:43.294Z,16.50
2023-01-08T10:12:53.468Z,16.30
2023-01-08T10:18:05.816Z,16.20
2023-01-08T10:23:19.565Z,15.40
2023-01-08T10:28:29.854Z,15.50
2023-01-08T10:33:45.493Z,14.20
2023-01-08T10:38:58.420Z,14.80
2023-01-08T10:44:08.910Z,15.70
2023-01-08T10:49:24.921Z,15.40
2023-01-08T10:54:37.881Z,15.00
2023-01-08T10:59:46.370Z,14.60
2023-01-08T11:04:55.939Z,15.20
2023-01-08T11:10:06.187Z,13.50
2023-01-08T11:15:33.766Z,14.20
2023-01-08T11:20:42.652Z,13.50
2023-01-08T11:26:00.287Z,13.70
2023-01-08T11:31:16.973Z,12.70
2023-01-08T11:36:30.209Z,13.40
2023-01-08T11:41:58.174Z,13.40
2023-01-08T11:47:16.180Z,13.30
2023-01-08T11:52:41.901Z,14.50
2023-01-08T11:58:04.970Z,13.30
2023-01-08T12:03:28.984Z,12.30
2023-01-08T12:08:49.098Z,12.60
2023-01-08T12:14:17.700Z,13.10
2023-01-08T12:19:47.102Z,13.80
2023-01-08T12:25:21.988Z,11.90
2023-01-08T12:30:45.633Z,13.10
2023-01-08T12:35:57.035Z,12.20
2023-01-08T12:41:11.468Z,11.80
2023-01-08T12:46:20.579Z,10.70
2023-01-08T12:51:38.293Z,10.30
2023-01-08T12:56:57.139Z,10.40
2023-01-08T13:02:18.567Z,11.60
2023-01-08T13:07:32.610Z,10.90
2023-01-08T13:12:44.122Z,10.30
2023-01-08T13:17:54.855Z,12.10
2023-01-08T13:23:04.798Z,10.40
2023-01-08T13:28:32.191Z,10.40
2023-01-08T13:33:44.573Z,9.20
2023-01-08T13:39:06.163Z,9.10
2023-01-08T13:44:26.341Z,8.20
2023-01-08T13:49:43.256Z,9.20
2023-01-08T13:54:52.588Z,8.10
2023-01-08T14:00:03.407Z,10.80
2023-01-08T14:05:23.085Z,9.00
2023-01-08T14:10:32.745Z,8.10
2023-01-08T14:15:42.399Z,9.80
2023-01-08T14:20:53.299Z,9.50
2023-01-08T14:26:05.710Z,9.70
2023-01-08T14:31:27.061Z,9.90
2023-01-08T14:36:35.778Z,9.70
2023-01-08T14:42:03.322Z,10.30
2023-01-08T14:47:21.417Z,10.60
2023-01-08T14:52:30.401Z,10.80
2023-01-08T14:57:38.753Z,11.10
2023-01-08T15:02:50.788Z,11.80
2023-01-08T15:08:04.745Z,12.80
2023-01-08T15:13:26.346Z,11.20
2023-01-08T15:18:35.458Z,12.30
2023-01-08T15:23:48.980Z,11.50
2023-01-08T15:29:00.534Z,13.40
2023-01-08T15:34:12.569Z,14.00
2023-01-08T15:39:21.902Z,12.50
2023-01-08T15:44:31.313Z,13.10
2023-01-08T15:49:39.584Z,13.80
2023-01-08T15:54:48.339Z,13.50
2023-01-08T15:59:56.857Z,11.50
2023-01-08T16:05:06.204Z,13.00
2023-01-08T16:10:15.870Z,13.60
2023-01-08T16:15:24.773Z,13.30
2023-01-08T16:20:33.000Z,11.40
2023-01-08T16:25:42.158Z,12.90
2023-01-08T16:30:52.049Z,11.90
2023-01-08T16:36:06.153Z,13.10
2023-01-08T16:41:15.269Z,12.60
2023-01-08T16:46:24.121Z,12.20
2023-01-08T16:51:33.217Z,13.40
2023-01-08T16:56:42.212Z,13.40
2023-01-08T17:01:51.209Z,12.60
2023-01-08T17:07:00.864Z,12.80
2023-01-08T17:12:09.939Z,12.20
2023-01-08T17:17:18.366Z,12.60
2023-01-08T17:22:27.383Z,12.70
2023-01-08T17:27:38.602Z,13.20
2023-01-08T17:32:48.079Z,14.00
2023-01-08T17:37:55.755Z,13.50
2023-01-08T17:43:05.443Z,12.70
2023-01-08T17:48:13.834Z,12.70
2023-01-08T17:53:23.081Z,12.90
2023-01-08T17:58:32.061Z,12.50
2023-01-08T18:03:40.279Z,13.30
2023-01-08T18:08:49.617Z,13.70
2023-01-08T18:14:03.492Z,13.60
2023-01-08T18:19:13.632Z,13.40
2023-01-08T18:24:22.825Z,13.30
2023-01-08T18:29:31.942Z,13.40
2023-01-08T18:34:40.945Z,14.30
2023-01-08T18:39:50.286Z,14.30
2023-01-08T18:44:59.819Z,14.50
2023-01-08T18:50:10.556Z,15.20
2023-01-08T18:55:19.545Z,14.70
2023-01-08T19:00:28.519Z,15.00
2023-01-08T19:05:41.381Z,15.50
2023-01-08T19:10:50.601Z,16.00
2023-01-08T19:16:01.675Z,15.00
2023-01-08T19:21:11.663Z,15.50
2023-01-08T19:26:21.315Z,15.90
2023-01-08T19:31:30.438Z,16.70
2023-01-08T19:36:40.986Z,17.20
2023-01-08T19:42:07.939Z,16.40
2023-01-08T19:47:16.578Z,15.00
2023-01-08T19:52:25.541Z,16.10
2023-01-08T19:57:33.785Z,16.00
2023-01-08T20:02:42.162Z,16.40
2023-01-08T20:07:54.030Z,17.10
2023-01-08T20:18:10.806Z,15.30
2023-01-08T20:23:20.346Z,14.60
2023-01-08T20:28:28.975Z,16.30
2023-01-08T20:33:37.678Z,16.20
2023-01-08T20:38:48.092Z,17.70
2023-01-08T20:43:58.045Z,16.60
2023-01-08T20:49:08.894Z,17.90
2023-01-08T20:54:19.392Z,17.70
2023-01-08T20:59:29.297Z,16.70
2023-01-08T21:04:42.098Z,17.00
2023-01-08T21:09:50.858Z,16.70
2023-01-08T21:14:59.752Z,17.80
2023-01-08T21:20:09.662Z,17.20
2023-01-08T21:25:19.420Z,18.00
2023-01-08T21:30:28.263Z,15.70
2023-01-08T21:35:37.733Z,15.90
2023-01-08T21:40:46.038Z,17.40
2023-01-08T21:46:02.500Z,15.90
2023-01-08T21:51:32.980Z,17.40
2023-01-08T21:56:41.717Z,16.30
2023-01-08T22:01:50.688Z,16.00
2023-01-08T22:06:59.346Z,17.20
2023-01-08T22:12:08.323Z,17.20
2023-01-08T22:17:16.928Z,18.00
2023-01-08T22:22:25.648Z,18.00
2023-01-08T22:27:33.983Z,17.80
2023-01-08T22:32:42.609Z,16.80
2023-01-08T22:37:51.087Z,16.70
2023-01-08T22:42:59.196Z,18.00
2023-01-08T22:48:08.306Z,16.20
2023-01-08T22:53:16.677Z,17.80
2023-01-08T22:58:25.350Z,19.30
2023-01-08T23:03:33.590Z,18.30
2023-01-08T23:08:43.269Z,19.10
2023-01-08T23:13:52.530Z,19.70
2023-01-08T23:19:02.192Z,18.10
2023-01-08T23:24:16.308Z,17.90
2023-01-08T23:29:24.729Z,18.00
2023-01-08T23:34:33.315Z,17.10
2023-01-08T23:39:42.134Z,18.30
2023-01-08T23:44:52.289Z,20.60
2023-01-08T23:50:00.598Z,18.70
2023-01-08T23:55:09.751Z,18.30
